Time;durP1;ratioP1;P1;durP2;ratioP2;P2;SDS_P1;SDS_P2;PMS_P1;PMS_P2;Temp;Humidity;BMP_temperature;BMP_pressure;BME280_temperature;BME280_humidity;BME280_pressure;Samples;Min_cycle;Max_cycle;Signal;HPM_P1;HPM_P2
2022/02/23 00:01:09;;;;;;;9.02;2.10;;;7.60;81.40;;;;;;5014640;28;20029;-82
2022/02/23 00:03:34;;;;;;;9.45;2.00;;;7.50;81.20;;;;;;5017807;28;20033;-82
2022/02/23 00:06:00;;;;;;;12.30;2.97;;;7.50;81.20;;;;;;5014159;28;20106;-83
2022/02/23 00:08:25;;;;;;;9.57;2.30;;;7.50;81.10;;;;;;5011492;28;20396;-81
2022/02/23 00:10:51;;;;;;;9.50;2.53;;;7.50;81.10;;;;;;5019422;28;20065;-81
2022/02/23 00:13:17;;;;;;;10.00;2.80;;;7.50;81.10;;;;;;5018536;28;20021;-81
2022/02/23 00:15:42;;;;;;;8.13;2.15;;;7.50;81.10;;;;;;5013675;28;20193;-82
2022/02/23 00:18:12;;;;;;;10.73;2.65;;;7.40;81.00;;;;;;5020446;28;20021;-81
2022/02/23 00:20:38;;;;;;;10.70;2.40;;;7.40;81.00;;;;;;5014993;28;20102;-82
2022/02/23 00:23:04;;;;;;;8.13;1.83;;;7.40;81.00;;;;;;5013460;28;20048;-83
2022/02/23 00:25:29;;;;;;;9.55;2.13;;;7.40;81.00;;;;;;5021314;28;20026;-83
2022/02/23 00:27:55;;;;;;;8.55;2.10;;;7.40;81.00;;;;;;5018527;28;20030;-84
2022/02/23 00:30:20;;;;;;;8.52;2.60;;;7.40;81.00;;;;;;5018267;28;20477;-82
2022/02/23 00:32:46;;;;;;;11.95;2.40;;;7.40;81.00;;;;;;5006819;28;20026;-81
2022/02/23 00:35:12;;;;;;;10.48;2.80;;;7.30;80.90;;;;;;5021249;28;20017;-82
2022/02/23 00:37:37;;;;;;;7.75;2.03;;;7.30;80.80;;;;;;5010786;28;20117;-82
2022/02/23 00:40:03;;;;;;;9.65;2.28;;;7.30;80.80;;;;;;5005076;28;20036;-84
2022/02/23 00:42:29;;;;;;;8.85;2.28;;;7.30;80.90;;;;;;5015274;28;20033;-84
2022/02/23 00:44:54;;;;;;;10.70;2.38;;;7.30;80.80;;;;;;5013515;28;20029;-83
2022/02/23 00:47:20;;;;;;;11.75;2.05;;;7.30;80.80;;;;;;4993451;28;20068;-83
2022/02/23 00:49:47;;;;;;;11.43;2.40;;;7.20;80.70;;;;;;5006291;28;20657;-83
2022/02/23 00:52:13;;;;;;;10.07;2.20;;;7.30;81.40;;;;;;5014577;28;20014;-81
2022/02/23 00:54:39;;;;;;;5.88;1.90;;;7.30;80.80;;;;;;5005519;28;20041;-82
2022/02/23 00:57:05;;;;;;;9.88;2.08;;;7.30;80.80;;;;;;5012840;28;20033;-82
2022/02/23 00:59:31;;;;;;;11.55;2.83;;;7.20;80.80;;;;;;5014852;28;20033;-82
2022/02/23 01:01:56;;;;;;;8.00;2.00;;;7.20;80.80;;;;;;5009151;28;20389;-82
2022/02/23 01:04:22;;;;;;;9.05;1.90;;;7.20;80.80;;;;;;5017555;28;20410;-81
2022/02/23 01:06:48;;;;;;;10.43;2.25;;;7.20;80.90;;;;;;5012886;28;20018;-83
2022/02/23 01:09:13;;;;;;;8.60;2.20;;;7.20;80.90;;;;;;5012648;28;20580;-83
2022/02/23 01:11:40;;;;;;;8.98;2.15;;;7.20;80.90;;;;;;5018868;28;20072;-81
2022/02/23 01:14:06;;;;;;;8.90;2.00;;;7.20;80.80;;;;;;5021188;28;20028;-83
2022/02/23 01:16:32;;;;;;;8.15;2.30;;;7.10;80.90;;;;;;5014931;28;20037;-81
2022/02/23 01:18:57;;;;;;;9.52;1.92;;;7.20;80.90;;;;;;5012364;28;20088;-81
2022/02/23 01:21:23;;;;;;;8.98;2.00;;;7.10;80.80;;;;;;5023205;28;20053;-83
2022/02/23 01:23:48;;;;;;;12.10;2.60;;;7.10;80.90;;;;;;5021025;28;20057;-83
2022/02/23 01:26:15;;;;;;;9.77;2.50;;;7.10;80.90;;;;;;5018659;28;20056;-84
2022/02/23 01:28:41;;;;;;;12.48;2.83;;;7.00;80.90;;;;;;5021562;28;20049;-84
2022/02/23 01:31:07;;;;;;;11.18;3.33;;;7.00;81.00;;;;;;5022331;28;20032;-83
2022/02/23 01:33:32;;;;;;;8.98;1.92;;;7.00;81.00;;;;;;5016097;28;20126;-83
2022/02/23 01:35:58;;;;;;;12.48;2.63;;;7.00;81.00;;;;;;5011368;28;20443;-83
2022/02/23 01:38:24;;;;;;;10.63;2.40;;;6.90;81.00;;;;;;5015555;28;20030;-83
2022/02/23 01:40:49;;;;;;;8.95;2.30;;;6.90;81.00;;;;;;5016730;28;20029;-83
2022/02/23 01:43:15;;;;;;;9.95;2.17;;;6.90;81.10;;;;;;5015990;28;20013;-83
2022/02/23 01:45:40;;;;;;;8.85;2.10;;;6.90;81.10;;;;;;5013309;28;20500;-84
2022/02/23 01:48:06;;;;;;;8.63;2.08;;;6.90;81.10;;;;;;5012356;28;20046;-84
2022/02/23 01:50:32;;;;;;;6.82;1.85;;;6.90;81.20;;;;;;5013943;28;20057;-84
2022/02/23 01:52:57;;;;;;;8.52;2.50;;;6.90;81.20;;;;;;5019851;28;20101;-85
2022/02/23 01:55:23;;;;;;;9.55;2.60;;;6.90;81.20;;;;;;5013610;28;20030;-85
2022/02/23 01:57:48;;;;;;;9.95;2.42;;;6.80;81.10;;;;;;5010712;28;20029;-83
2022/02/23 02:00:16;;;;;;;9.68;2.40;;;6.80;81.10;;;;;;5013192;28;20068;-84
2022/02/23 02:02:44;;;;;;;12.38;2.22;;;6.80;81.20;;;;;;5011130;28;20045;-83
2022/02/23 02:05:10;;;;;;;10.57;2.58;;;6.70;81.10;;;;;;5012425;28;20049;-84
2022/02/23 02:07:35;;;;;;;7.88;1.98;;;6.80;81.20;;;;;;5007467;28;20033;-83
2022/02/23 02:10:03;;;;;;;9.25;2.30;;;6.80;81.20;;;;;;5008609;28;20432;-83
2022/02/23 02:12:28;;;;;;;9.77;2.20;;;6.80;81.10;;;;;;5010006;28;20021;-82
2022/02/23 02:14:54;;;;;;;11.45;2.03;;;6.80;81.10;;;;;;5016606;28;20060;-82
2022/02/23 02:17:20;;;;;;;8.70;2.22;;;6.80;81.10;;;;;;5009183;28;20009;-82
2022/02/23 02:19:46;;;;;;;10.43;2.13;;;6.70;81.00;;;;;;5008872;28;20449;-82
2022/02/23 02:22:12;;;;;;;11.15;2.55;;;6.80;81.10;;;;;;5016601;28;20075;-82
2022/02/23 02:24:40;;;;;;;10.65;2.47;;;6.80;81.10;;;;;;5020136;28;20396;-84
2022/02/23 02:27:11;;;;;;;9.15;2.40;;;6.70;81.00;;;;;;5025188;28;20029;-83
2022/02/23 02:29:37;;;;;;;7.35;2.03;;;6.70;81.10;;;;;;5025223;28;20069;-84
2022/02/23 02:32:03;;;;;;;11.85;2.33;;;6.70;81.20;;;;;;5017050;28;20026;-83
2022/02/23 02:34:29;;;;;;;7.45;1.90;;;6.60;81.10;;;;;;5020749;28;20095;-84
2022/02/23 02:36:56;;;;;;;11.18;2.50;;;6.60;81.10;;;;;;5011426;28;20029;-84
2022/02/23 02:39:23;;;;;;;10.00;2.33;;;6.60;81.20;;;;;;5009425;28;20030;-84
2022/02/23 02:41:49;;;;;;;8.98;1.85;;;6.60;81.20;;;;;;5010918;28;20072;-83
2022/02/23 02:44:16;;;;;;;10.43;2.60;;;6.60;81.20;;;;;;5018311;28;20034;-83
2022/02/23 02:46:42;;;;;;;7.13;2.20;;;6.60;81.20;;;;;;5013869;28;20032;-83
2022/02/23 02:49:08;;;;;;;11.10;2.40;;;6.60;81.30;;;;;;5013822;28;20046;-85
2022/02/23 02:51:34;;;;;;;10.05;2.30;;;6.60;81.30;;;;;;5016103;28;20045;-83
2022/02/23 02:54:00;;;;;;;10.00;2.10;;;6.50;81.30;;;;;;5016766;28;20030;-84
2022/02/23 02:56:26;;;;;;;8.25;2.63;;;6.50;81.30;;;;;;5015761;28;20647;-83
2022/02/23 02:58:52;;;;;;;6.47;1.75;;;6.50;81.40;;;;;;5017649;28;20080;-83
2022/02/23 03:01:19;;;;;;;8.85;2.20;;;6.50;81.40;;;;;;5018350;28;20436;-83
2022/02/23 03:03:44;;;;;;;10.38;2.35;;;6.50;81.40;;;;;;5019565;28;20440;-82
2022/02/23 03:06:10;;;;;;;8.73;1.95;;;6.50;81.40;;;;;;5007173;28;20058;-82
2022/02/23 03:08:35;;;;;;;8.20;1.95;;;6.50;81.40;;;;;;5006586;28;20117;-83
2022/02/23 03:11:01;;;;;;;7.50;2.28;;;6.50;81.50;;;;;;5010193;28;20121;-83
2022/02/23 03:13:26;;;;;;;8.63;2.53;;;6.40;81.40;;;;;;5009763;28;20136;-83
2022/02/23 03:15:52;;;;;;;7.13;1.90;;;6.40;81.40;;;;;;5010175;28;20022;-83
2022/02/23 03:18:17;;;;;;;6.32;2.15;;;6.40;81.50;;;;;;5010826;28;20037;-83
2022/02/23 03:20:43;;;;;;;8.68;1.83;;;6.40;81.50;;;;;;5010462;28;20026;-82
2022/02/23 03:23:09;;;;;;;9.00;2.45;;;6.40;81.60;;;;;;5018157;28;20021;-82
2022/02/23 03:25:35;;;;;;;11.82;2.28;;;6.40;81.60;;;;;;5015895;28;20018;-81
2022/02/23 03:28:00;;;;;;;7.72;2.17;;;6.40;81.60;;;;;;5008781;28;20511;-82
2022/02/23 03:30:26;;;;;;;6.40;2.15;;;6.40;81.60;;;;;;5016172;28;20121;-81
2022/02/23 03:32:51;;;;;;;6.78;2.00;;;6.30;81.60;;;;;;5010116;28;20759;-82
2022/02/23 03:35:17;;;;;;;7.00;1.98;;;6.30;81.70;;;;;;5014791;28;20017;-83
2022/02/23 03:37:43;;;;;;;8.70;2.42;;;6.40;81.70;;;;;;5014690;28;20048;-83
2022/02/23 03:40:09;;;;;;;11.43;2.38;;;6.30;81.60;;;;;;5020976;28;20480;-83
2022/02/23 03:42:34;;;;;;;7.65;2.00;;;6.30;81.70;;;;;;5011740;28;20241;-83
2022/02/23 03:45:00;;;;;;;7.22;2.13;;;6.30;81.80;;;;;;5020561;28;20028;-83
2022/02/23 03:47:25;;;;;;;9.40;2.50;;;6.30;81.70;;;;;;5018241;28;20030;-83
2022/02/23 03:49:51;;;;;;;10.98;2.63;;;6.30;81.80;;;;;;5018198;28;20030;-84
2022/02/23 03:52:16;;;;;;;8.77;2.03;;;6.30;81.80;;;;;;5016444;28;20031;-85
2022/02/23 03:54:42;;;;;;;12.20;2.38;;;6.20;81.80;;;;;;5019724;28;20424;-84
2022/02/23 03:57:07;;;;;;;9.68;2.22;;;6.20;81.80;;;;;;5018857;28;20112;-84
2022/02/23 03:59:33;;;;;;;7.60;2.40;;;6.20;81.80;;;;;;5019991;28;20034;-84
2022/02/23 04:01:59;;;;;;;8.55;2.40;;;6.20;81.90;;;;;;5021012;28;20029;-84
2022/02/23 04:04:24;;;;;;;12.35;2.47;;;6.20;81.90;;;;;;5008453;28;20034;-84
2022/02/23 04:06:50;;;;;;;6.88;2.15;;;6.20;81.90;;;;;;5018204;28;20022;-84
2022/02/23 04:09:16;;;;;;;6.70;1.92;;;6.20;81.90;;;;;;5016421;28;20033;-84
2022/02/23 04:11:42;;;;;;;9.75;2.10;;;6.20;81.90;;;;;;5012512;28;20049;-83
2022/02/23 04:14:08;;;;;;;7.57;1.80;;;6.20;81.90;;;;;;5013581;28;20084;-84
2022/02/23 04:16:35;;;;;;;6.38;1.85;;;6.10;82.00;;;;;;5012664;28;20107;-84
2022/02/23 04:19:02;;;;;;;9.38;2.60;;;6.10;82.00;;;;;;5011310;28;20054;-83
2022/02/23 04:21:28;;;;;;;10.85;2.05;;;6.10;82.00;;;;;;5002465;28;20030;-83
2022/02/23 04:23:54;;;;;;;8.35;2.10;;;6.10;82.10;;;;;;5009784;28;20530;-83
2022/02/23 04:26:20;;;;;;;10.45;2.60;;;6.10;82.10;;;;;;5011774;28;20040;-82
2022/02/23 04:28:46;;;;;;;7.78;2.08;;;6.10;82.10;;;;;;5010877;28;20033;-83
2022/02/23 04:31:12;;;;;;;10.20;2.55;;;6.10;82.20;;;;;;5008367;28;20026;-83
2022/02/23 04:33:38;;;;;;;9.23;2.20;;;6.10;82.20;;;;;;5007980;28;20021;-83
2022/02/23 04:36:08;;;;;;;7.82;2.33;;;6.00;82.20;;;;;;5017388;28;20018;-83
2022/02/23 04:38:34;;;;;;;12.10;2.75;;;6.00;82.30;;;;;;5018005;28;20026;-83
2022/02/23 04:41:00;;;;;;;8.00;1.75;;;6.00;82.30;;;;;;5019381;28;20029;-82
2022/02/23 04:43:25;;;;;;;6.28;1.90;;;6.00;82.30;;;;;;5020391;28;20151;-82
2022/02/23 04:45:51;;;;;;;9.70;2.72;;;6.00;82.40;;;;;;5017272;28;20034;-82
2022/02/23 04:48:17;;;;;;;9.70;2.67;;;5.90;82.30;;;;;;5024787;28;20022;-80
2022/02/23 04:50:44;;;;;;;7.47;2.08;;;5.90;82.30;;;;;;5018096;28;20049;-81
2022/02/23 04:53:09;;;;;;;8.82;2.17;;;5.90;82.40;;;;;;5015676;28;20017;-82
2022/02/23 04:55:35;;;;;;;7.90;2.38;;;5.90;82.40;;;;;;5016949;28;20037;-82
2022/02/23 04:58:07;;;;;;;7.00;1.80;;;5.90;82.50;;;;;;5012107;28;20014;-82
2022/02/23 05:00:34;;;;;;;10.55;2.25;;;5.90;82.50;;;;;;5017894;28;20573;-82
2022/02/23 05:03:00;;;;;;;9.82;2.20;;;6.00;82.60;;;;;;5020930;28;20029;-83
2022/02/23 05:05:25;;;;;;;8.63;2.35;;;5.90;82.50;;;;;;5012961;28;20038;-82
2022/02/23 05:07:51;;;;;;;10.15;2.60;;;6.00;82.60;;;;;;5017192;28;20028;-82
2022/02/23 05:10:16;;;;;;;8.68;2.22;;;5.90;82.70;;;;;;5018927;28;20048;-83
2022/02/23 05:12:42;;;;;;;6.75;1.70;;;5.90;82.80;;;;;;5011235;28;20169;-82
2022/02/23 05:15:08;;;;;;;11.73;2.50;;;5.90;82.70;;;;;;5010015;28;20080;-82
2022/02/23 05:17:34;;;;;;;8.13;1.85;;;5.90;82.80;;;;;;5014194;28;20027;-83
2022/02/23 05:19:59;;;;;;;5.90;2.00;;;5.90;82.90;;;;;;5016821;28;20059;-82
2022/02/23 05:22:25;;;;;;;10.68;2.80;;;5.90;82.90;;;;;;5023049;28;20037;-82
2022/02/23 05:24:50;;;;;;;10.50;2.95;;;6.00;83.00;;;;;;5009285;28;20026;-83
2022/02/23 05:27:16;;;;;;;7.35;2.63;;;5.90;82.90;;;;;;5022376;28;20052;-81
2022/02/23 05:29:41;;;;;;;10.15;2.35;;;5.90;82.90;;;;;;5012097;28;20100;-81
2022/02/23 05:32:08;;;;;;;8.20;2.10;;;6.00;82.90;;;;;;5018643;28;20022;-81
2022/02/23 05:34:33;;;;;;;7.82;2.38;;;5.90;82.90;;;;;;5009250;28;20528;-82
2022/02/23 05:36:59;;;;;;;8.60;2.42;;;5.90;82.90;;;;;;5003937;28;20028;-84
2022/02/23 05:39:24;;;;;;;6.93;1.90;;;5.90;82.90;;;;;;5015753;28;20109;-83
2022/02/23 05:41:50;;;;;;;8.85;2.58;;;5.90;82.90;;;;;;5025284;28;20037;-82
2022/02/23 05:44:16;;;;;;;9.65;2.70;;;5.90;82.90;;;;;;5011137;28;20404;-82
2022/02/23 05:46:41;;;;;;;11.88;3.08;;;5.80;82.90;;;;;;5018928;28;20026;-89
2022/02/23 05:49:07;;;;;;;9.93;2.65;;;5.80;83.00;;;;;;5017935;28;20384;-75
2022/02/23 05:51:38;;;;;;;11.10;2.65;;;5.80;83.10;;;;;;5021227;28;20092;-74
2022/02/23 05:54:04;;;;;;;12.48;2.72;;;5.70;83.10;;;;;;5014416;28;20026;-74
2022/02/23 05:56:32;;;;;;;10.45;3.22;;;5.70;83.20;;;;;;5024253;28;20395;-73
2022/02/23 05:58:58;;;;;;;9.25;2.25;;;5.60;83.20;;;;;;5022139;28;20037;-74
2022/02/23 06:01:24;;;;;;;7.13;2.30;;;5.60;83.10;;;;;;5011756;28;20034;-73
2022/02/23 06:03:50;;;;;;;8.75;2.30;;;5.60;83.20;;;;;;5011986;28;20080;-73
2022/02/23 06:06:16;;;;;;;7.95;2.60;;;5.60;83.30;;;;;;5011270;28;20105;-73
2022/02/23 06:08:41;;;;;;;8.30;2.50;;;5.60;83.40;;;;;;5010152;28;20030;-73
2022/02/23 06:11:08;;;;;;;6.65;2.10;;;5.60;84.00;;;;;;5008698;28;20030;-73
2022/02/23 06:13:34;;;;;;;7.90;2.40;;;5.60;83.50;;;;;;5008119;28;20037;-73
2022/02/23 06:16:01;;;;;;;9.40;2.50;;;5.60;83.40;;;;;;5011025;28;20037;-74
2022/02/23 06:18:27;;;;;;;7.13;2.30;;;5.60;83.50;;;;;;5006604;28;20113;-74
2022/02/23 06:20:55;;;;;;;8.43;2.53;;;5.50;83.40;;;;;;5009201;28;20065;-74
2022/02/23 06:23:22;;;;;;;7.03;2.25;;;5.50;83.50;;;;;;5008121;28;20496;-74
2022/02/23 06:25:48;;;;;;;9.65;2.38;;;5.50;83.60;;;;;;5008724;28;20026;-74
2022/02/23 06:28:14;;;;;;;7.32;2.45;;;5.40;83.60;;;;;;5011149;28;20148;-74
2022/02/23 06:30:41;;;;;;;13.18;2.88;;;5.40;83.70;;;;;;5009157;28;20128;-73
2022/02/23 06:33:06;;;;;;;9.50;2.78;;;5.40;83.80;;;;;;5014527;28;20106;-74
2022/02/23 06:35:33;;;;;;;6.90;2.08;;;5.40;83.80;;;;;;5016181;28;20501;-74
2022/02/23 06:37:58;;;;;;;12.68;3.00;;;5.40;83.90;;;;;;5017255;28;20388;-74
2022/02/23 06:40:24;;;;;;;9.25;2.65;;;5.40;83.90;;;;;;5009372;28;20030;-73
2022/02/23 06:42:50;;;;;;;12.40;2.78;;;5.40;83.90;;;;;;5023217;28;20495;-73
2022/02/23 06:45:15;;;;;;;6.75;2.45;;;5.40;84.00;;;;;;5014427;28;20119;-73
2022/02/23 06:47:41;;;;;;;10.45;2.83;;;5.40;84.10;;;;;;5015925;28;20046;-73
2022/02/23 06:50:07;;;;;;;9.20;2.63;;;5.40;84.10;;;;;;5019310;28;20126;-73
2022/02/23 06:52:35;;;;;;;8.27;2.50;;;5.40;84.10;;;;;;5021167;28;20029;-75
2022/02/23 06:55:01;;;;;;;6.32;2.70;;;5.40;84.10;;;;;;5006191;28;20017;-74
2022/02/23 06:57:38;;;;;;;7.40;2.45;;;5.40;84.00;;;;;;5003878;28;20061;-74
2022/02/23 07:00:06;;;;;;;9.00;2.72;;;5.40;84.10;;;;;;4999773;28;20401;-75
2022/02/23 07:02:33;;;;;;;8.82;2.47;;;5.40;84.00;;;;;;5008707;28;20041;-73
2022/02/23 07:04:58;;;;;;;8.25;2.80;;;5.40;84.10;;;;;;5013879;28;20492;-74
2022/02/23 07:07:24;;;;;;;10.45;3.15;;;5.40;84.10;;;;;;5012756;28;20033;-73
2022/02/23 07:09:49;;;;;;;7.57;2.60;;;5.40;84.10;;;;;;5009360;28;20044;-72
2022/02/23 07:12:15;;;;;;;5.50;2.58;;;5.30;84.20;;;;;;5016852;28;20080;-72
2022/02/23 07:14:41;;;;;;;10.48;3.20;;;5.40;84.20;;;;;;5018307;28;20032;-72
2022/02/23 07:17:06;;;;;;;9.00;2.58;;;5.40;84.30;;;;;;5012549;28;20052;-73
2022/02/23 07:19:33;;;;;;;7.10;2.50;;;5.50;84.40;;;;;;5018566;28;20030;-73
2022/02/23 07:21:58;;;;;;;8.70;2.60;;;5.50;84.30;;;;;;5014012;28;20053;-74
2022/02/23 07:24:24;;;;;;;11.73;3.33;;;5.50;84.30;;;;;;5009025;28;20030;-73
2022/02/23 07:26:49;;;;;;;9.73;2.80;;;5.60;84.30;;;;;;5017292;28;20026;-73
2022/02/23 07:29:15;;;;;;;6.63;2.53;;;5.50;84.30;;;;;;5010118;28;20032;-73
2022/02/23 07:31:43;;;;;;;9.02;2.75;;;5.60;84.30;;;;;;5000970;28;20037;-73
2022/02/23 07:34:08;;;;;;;8.43;2.40;;;5.60;84.30;;;;;;5008059;28;20834;-74
2022/02/23 07:36:34;;;;;;;11.43;2.55;;;5.70;84.20;;;;;;5005650;28;20033;-73
2022/02/23 07:39:00;;;;;;;8.65;2.75;;;5.70;84.20;;;;;;5007832;28;20025;-72
2022/02/23 07:41:25;;;;;;;7.63;2.40;;;5.80;84.10;;;;;;5005927;28;20528;-72
2022/02/23 07:43:52;;;;;;;8.10;2.60;;;5.80;84.00;;;;;;5009341;28;20030;-73
2022/02/23 07:46:18;;;;;;;10.93;2.53;;;5.80;84.10;;;;;;5006488;28;20034;-72
2022/02/23 07:48:47;;;;;;;10.93;3.15;;;5.90;84.10;;;;;;5006340;28;20029;-80
2022/02/23 07:51:14;;;;;;;8.77;2.70;;;5.90;84.00;;;;;;5005900;28;20695;-73
2022/02/23 07:53:40;;;;;;;7.97;2.60;;;5.90;84.00;;;;;;5007255;28;20030;-75
2022/02/23 07:56:06;;;;;;;8.60;2.67;;;6.00;83.90;;;;;;5008064;28;20172;-74
2022/02/23 07:58:31;;;;;;;11.63;3.05;;;6.10;83.90;;;;;;5008131;28;20112;-74
2022/02/23 08:00:57;;;;;;;10.20;2.72;;;6.10;83.80;;;;;;5008193;28;20026;-74
2022/02/23 08:03:23;;;;;;;9.40;3.10;;;6.10;83.70;;;;;;5006860;28;20079;-73
2022/02/23 08:05:49;;;;;;;8.65;2.90;;;6.20;83.70;;;;;;5008836;28;20037;-73
2022/02/23 08:08:16;;;;;;;10.10;3.00;;;6.20;83.60;;;;;;5004400;28;20057;-72
2022/02/23 08:10:42;;;;;;;11.23;2.70;;;6.30;84.20;;;;;;5005563;28;20040;-72
2022/02/23 08:13:08;;;;;;;10.32;3.33;;;6.30;83.50;;;;;;5006873;28;20021;-75
2022/02/23 08:21:03;;;;;;;9.43;3.10;;;6.40;83.30;;;;;;5008043;28;20076;-73
2022/02/23 08:23:28;;;;;;;11.13;3.10;;;6.40;83.00;;;;;;5008242;28;20049;-73
2022/02/23 08:25:54;;;;;;;9.20;2.83;;;6.40;83.00;;;;;;5013027;28;20052;-74
2022/02/23 08:28:19;;;;;;;8.85;2.42;;;6.50;83.10;;;;;;5003653;28;20022;-74
2022/02/23 08:30:46;;;;;;;10.98;3.20;;;6.50;83.10;;;;;;5006570;28;20064;-73
2022/02/23 08:33:13;;;;;;;9.02;2.65;;;6.60;83.00;;;;;;5004189;28;20068;-73
2022/02/23 08:35:38;;;;;;;10.70;3.20;;;6.70;83.00;;;;;;5006117;28;20029;-73
2022/02/23 08:38:04;;;;;;;11.50;3.15;;;6.70;82.80;;;;;;5005550;28;20052;-74
2022/02/23 08:40:29;;;;;;;10.05;3.33;;;6.70;82.70;;;;;;5008785;28;20057;-73
2022/02/23 08:42:55;;;;;;;9.23;2.70;;;6.70;82.80;;;;;;5006039;28;20495;-73
2022/02/23 08:45:21;;;;;;;8.38;2.72;;;6.80;82.80;;;;;;5007050;28;20030;-74
2022/02/23 08:47:46;;;;;;;8.13;2.55;;;6.80;82.70;;;;;;5006142;28;20057;-74
2022/02/23 08:50:12;;;;;;;9.93;3.15;;;6.80;82.70;;;;;;5008424;28;20599;-74
2022/02/23 08:52:38;;;;;;;12.63;3.15;;;6.90;82.70;;;;;;5003856;28;20018;-74
2022/02/23 08:55:04;;;;;;;14.82;3.70;;;6.90;82.60;;;;;;5005002;28;20574;-74
2022/02/23 08:57:31;;;;;;;9.38;3.13;;;7.00;82.60;;;;;;5003024;28;20101;-75
2022/02/23 08:59:56;;;;;;;10.45;2.80;;;7.00;82.50;;;;;;5007154;28;20022;-75
2022/02/23 09:02:22;;;;;;;8.75;2.22;;;7.10;82.60;;;;;;5006662;28;20473;-74
2022/02/23 09:04:47;;;;;;;8.23;3.08;;;7.20;82.50;;;;;;5006831;28;20022;-74
2022/02/23 09:07:13;;;;;;;13.48;3.20;;;7.30;82.40;;;;;;5005936;28;20048;-74
2022/02/23 09:09:39;;;;;;;9.27;2.60;;;7.40;82.40;;;;;;5003444;28;20033;-75
2022/02/23 09:12:06;;;;;;;8.98;2.90;;;7.40;82.10;;;;;;5007530;28;20033;-75
2022/02/23 09:14:31;;;;;;;8.43;2.50;;;7.50;82.10;;;;;;5004331;28;20084;-75
2022/02/23 09:16:57;;;;;;;11.18;2.78;;;7.50;82.10;;;;;;5008322;28;20109;-76
2022/02/23 09:19:22;;;;;;;10.52;3.25;;;7.60;82.00;;;;;;5008081;28;20026;-75
2022/02/23 09:21:48;;;;;;;9.75;2.97;;;7.70;81.90;;;;;;5011524;28;20030;-74
2022/02/23 09:24:14;;;;;;;11.38;2.90;;;7.80;81.80;;;;;;5011948;28;20022;-73
2022/02/23 09:26:40;;;;;;;9.68;3.60;;;7.90;81.70;;;;;;5007570;28;20034;-74
2022/02/23 09:29:06;;;;;;;10.77;3.33;;;7.90;81.40;;;;;;5006543;28;20052;-74
2022/02/23 09:31:32;;;;;;;8.50;2.88;;;8.00;81.40;;;;;;5008526;28;20097;-74
2022/02/23 09:33:58;;;;;;;9.07;3.13;;;8.00;81.30;;;;;;5001387;28;20643;-74
2022/02/23 09:36:24;;;;;;;10.82;3.30;;;8.10;81.10;;;;;;5002539;28;20068;-74
2022/02/23 09:38:51;;;;;;;10.85;3.90;;;8.20;81.00;;;;;;5002301;28;20057;-73
2022/02/23 09:41:18;;;;;;;10.05;3.40;;;8.20;80.80;;;;;;5009149;28;20064;-73
2022/02/23 09:43:47;;;;;;;10.10;3.35;;;8.20;80.70;;;;;;5007176;28;20014;-74
2022/02/23 09:46:18;;;;;;;8.90;3.08;;;8.30;80.60;;;;;;5002478;28;20049;-75
2022/02/23 09:48:44;;;;;;;11.68;4.22;;;8.30;80.50;;;;;;5004878;28;20022;-75
2022/02/23 09:51:10;;;;;;;10.90;3.40;;;8.40;80.40;;;;;;5006626;28;20080;-73
2022/02/23 09:53:38;;;;;;;13.85;4.50;;;8.40;80.30;;;;;;5009564;28;20477;-75
2022/02/23 09:56:04;;;;;;;12.07;3.80;;;8.50;79.90;;;;;;5007287;28;20528;-74
2022/02/23 09:58:30;;;;;;;11.15;3.50;;;8.50;79.90;;;;;;5008553;28;20029;-73
2022/02/23 10:00:56;;;;;;;9.15;3.67;;;8.60;80.00;;;;;;5008983;28;20096;-73
2022/02/23 10:03:24;;;;;;;11.35;4.25;;;8.70;80.00;;;;;;5015104;28;20033;-73
2022/02/23 10:05:50;;;;;;;10.27;3.47;;;8.80;79.80;;;;;;5011031;28;20029;-74
2022/02/23 10:08:16;;;;;;;9.35;3.53;;;8.80;79.60;;;;;;5008922;28;20030;-73
2022/02/23 10:10:48;;;;;;;10.07;3.75;;;8.80;79.50;;;;;;5012552;28;20469;-73
2022/02/23 10:13:18;;;;;;;17.65;5.18;;;8.90;79.40;;;;;;5007630;28;20148;-74
2022/02/23 10:15:46;;;;;;;11.45;4.50;;;9.00;79.10;;;;;;5010387;28;20498;-74
2022/02/23 10:18:20;;;;;;;10.63;4.57;;;9.00;78.90;;;;;;5007486;28;20109;-73
2022/02/23 10:20:47;;;;;;;15.00;5.15;;;9.10;78.90;;;;;;5012341;28;20026;-73
2022/02/23 10:23:20;;;;;;;14.18;5.22;;;9.00;78.50;;;;;;5008405;28;20048;-73
2022/02/23 10:25:58;;;;;;;16.95;6.15;;;9.10;78.40;;;;;;5009133;28;20026;-74
2022/02/23 10:28:26;;;;;;;17.70;7.05;;;9.20;78.40;;;;;;5006841;28;20062;-74
2022/02/23 10:30:53;;;;;;;14.10;5.53;;;9.20;77.90;;;;;;5008147;28;20103;-74
2022/02/23 10:33:30;;;;;;;16.00;5.15;;;9.20;77.60;;;;;;5015444;28;20935;-75
2022/02/23 10:36:02;;;;;;;12.63;5.40;;;9.20;77.70;;;;;;5015022;28;20503;-73
2022/02/23 10:38:34;;;;;;;12.88;4.70;;;9.30;77.70;;;;;;5015124;28;20144;-74
2022/02/23 10:41:03;;;;;;;13.48;5.03;;;9.30;77.70;;;;;;5011684;28;20384;-74
2022/02/23 10:43:44;;;;;;;10.52;4.55;;;9.40;77.60;;;;;;5011840;28;20038;-74
2022/02/23 10:46:15;;;;;;;12.35;4.88;;;9.40;78.20;;;;;;5008402;28;20072;-74
2022/02/23 10:48:42;;;;;;;12.82;5.07;;;9.50;77.40;;;;;;5008759;28;20026;-74
2022/02/23 10:51:10;;;;;;;13.18;5.38;;;9.60;77.30;;;;;;5010634;28;20231;-73
2022/02/23 10:53:37;;;;;;;12.88;5.15;;;9.60;76.60;;;;;;5008714;28;20121;-75
2022/02/23 10:56:26;;;;;;;15.63;5.50;;;9.60;76.20;;;;;;5012469;28;20041;-73
2022/02/23 10:59:02;;;;;;;16.63;6.07;;;9.70;76.10;;;;;;5010939;28;20062;-72
2022/02/23 11:01:29;;;;;;;14.40;4.90;;;9.70;75.60;;;;;;5007780;28;20029;-73
2022/02/23 11:03:55;;;;;;;11.15;4.13;;;9.80;75.50;;;;;;5007920;28;20036;-75
2022/02/23 11:06:23;;;;;;;10.88;4.22;;;9.80;75.50;;;;;;5009450;28;20022;-74
2022/02/23 11:08:53;;;;;;;11.75;4.28;;;9.90;74.90;;;;;;5005081;28;20037;-75
2022/02/23 11:11:21;;;;;;;11.90;4.50;;;10.00;74.50;;;;;;5006958;28;20504;-73
2022/02/23 11:13:48;;;;;;;10.63;4.18;;;10.10;74.30;;;;;;5005179;28;20037;-73
2022/02/23 11:16:15;;;;;;;9.90;3.28;;;10.10;73.10;;;;;;5000082;28;20018;-75
2022/02/23 11:18:41;;;;;;;14.27;4.03;;;10.10;73.30;;;;;;5003203;28;20125;-74
2022/02/23 11:21:12;;;;;;;8.70;3.42;;;10.20;72.10;;;;;;5004104;28;20113;-75
2022/02/23 11:23:39;;;;;;;12.48;3.95;;;10.30;71.60;;;;;;5012339;28;20480;-75
2022/02/23 11:26:07;;;;;;;11.77;3.60;;;10.30;70.90;;;;;;5005072;28;20030;-75
2022/02/23 11:28:35;;;;;;;10.77;3.17;;;10.40;70.30;;;;;;5003661;28;20884;-74
2022/02/23 11:31:05;;;;;;;7.35;3.05;;;10.40;70.00;;;;;;5007674;28;20168;-73
2022/02/23 11:33:49;;;;;;;8.10;2.80;;;10.60;70.10;;;;;;5008408;28;20026;-74
2022/02/23 11:36:24;;;;;;;10.52;3.22;;;10.70;70.10;;;;;;5006100;28;20022;-73
2022/02/23 11:38:51;;;;;;;11.85;2.80;;;10.70;69.10;;;;;;5007151;28;20112;-73
2022/02/23 11:41:27;;;;;;;7.30;2.70;;;10.70;67.50;;;;;;5005100;28;20030;-74
2022/02/23 11:44:08;;;;;;;9.32;2.90;;;10.80;67.30;;;;;;5011181;28;20018;-74
2022/02/23 11:46:52;;;;;;;8.48;2.28;;;10.90;67.10;;;;;;5007530;28;20069;-74
2022/02/23 11:49:21;;;;;;;9.32;2.85;;;10.90;67.30;;;;;;5004493;28;20117;-75
2022/02/23 11:51:47;;;;;;;7.57;2.30;;;11.00;66.80;;;;;;5006780;28;20038;-74
2022/02/23 11:54:13;;;;;;;9.45;3.00;;;11.00;67.10;;;;;;5008598;28;20043;-75
2022/02/23 11:56:50;;;;;;;9.02;2.63;;;11.10;66.70;;;;;;5007141;28;20034;-76
2022/02/23 11:59:45;;;;;;;8.10;3.03;;;11.10;66.10;;;;;;5007687;28;20908;-75
2022/02/23 12:02:12;;;;;;;7.70;2.75;;;11.10;65.40;;;;;;4999034;28;20042;-73
2022/02/23 12:04:47;;;;;;;8.63;2.95;;;11.20;65.50;;;;;;5005532;28;20400;-74
2022/02/23 12:07:13;;;;;;;7.60;2.40;;;11.30;65.00;;;;;;5005035;28;20026;-74
2022/02/23 12:09:57;;;;;;;8.80;2.85;;;11.30;64.90;;;;;;5005676;28;20030;-73
2022/02/23 12:12:30;;;;;;;7.32;2.17;;;11.40;64.70;;;;;;5007587;28;20029;-74
2022/02/23 12:14:56;;;;;;;8.00;2.28;;;11.40;64.00;;;;;;5008153;28;21969;-74
2022/02/23 12:17:47;;;;;;;8.98;2.97;;;11.60;64.30;;;;;;5005907;28;20113;-74
2022/02/23 12:20:34;;;;;;;8.85;2.30;;;11.70;63.80;;;;;;5005475;28;20045;-73
2022/02/23 12:23:06;;;;;;;8.20;2.80;;;11.80;63.70;;;;;;5007476;28;20025;-73
2022/02/23 12:25:50;;;;;;;7.90;2.88;;;11.80;62.80;;;;;;5003876;28;20026;-74
2022/02/23 12:28:18;;;;;;;6.93;2.50;;;11.80;63.10;;;;;;4995647;28;20822;-74
2022/02/23 12:31:06;;;;;;;9.02;2.70;;;11.80;63.20;;;;;;5016735;28;20807;-74
2022/02/23 12:33:35;;;;;;;8.55;2.78;;;11.90;63.00;;;;;;5005339;28;20025;-74
2022/02/23 12:36:11;;;;;;;8.02;2.55;;;12.00;63.00;;;;;;5006996;28;20037;-73
2022/02/23 12:38:48;;;;;;;7.72;2.53;;;12.10;62.50;;;;;;5004238;28;20046;-74
2022/02/23 12:41:19;;;;;;;7.55;2.58;;;12.00;61.90;;;;;;5005959;28;20112;-75
2022/02/23 12:44:02;;;;;;;4.80;2.10;;;12.00;62.40;;;;;;5005397;28;20030;-75
2022/02/23 12:46:31;;;;;;;8.90;2.53;;;12.00;62.70;;;;;;5004642;28;20353;-75
2022/02/23 12:48:58;;;;;;;7.32;2.30;;;12.10;62.20;;;;;;5002711;28;20030;-75
2022/02/23 12:51:29;;;;;;;6.63;2.03;;;12.10;62.00;;;;;;5003232;28;20109;-73
2022/02/23 12:53:58;;;;;;;8.13;2.57;;;12.10;62.20;;;;;;5003810;28;20563;-74
2022/02/23 12:56:29;;;;;;;7.97;2.80;;;12.30;61.10;;;;;;5005219;28;20366;-73
2022/02/23 12:59:00;;;;;;;6.97;2.17;;;12.30;60.40;;;;;;5001556;28;20157;-75